sensor_id;sensor_type;location;lat;lon;timestamp;P1;durP1;ratioP1;P2;durP2;ratioP2
14734;SDS011;7458;49.002;8.472;2023-10-19T00:00:45;26.73;;;20.73;;
14734;SDS011;7458;49.002;8.472;2023-10-19T00:03:16;28.40;;;21.65;;
14734;SDS011;7458;49.002;8.472;2023-10-19T00:05:45;28.90;;;24.85;;
14734;SDS011;7458;49.002;8.472;2023-10-19T00:08:14;28.67;;;22.27;;
14734;SDS011;7458;49.002;8.472;2023-10-19T00:10:42;33.90;;;23.58;;
14734;SDS011;7458;49.002;8.472;2023-10-19T00:13:28;27.40;;;23.60;;
14734;SDS011;7458;49.002;8.472;2023-10-19T00:15:55;27.88;;;20.77;;
14734;SDS011;7458;49.002;8.472;2023-10-19T00:18:23;26.00;;;22.88;;
14734;SDS011;7458;49.002;8.472;2023-10-19T00:20:53;28.08;;;23.80;;
14734;SDS011;7458;49.002;8.472;2023-10-19T00:23:20;27.33;;;23.15;;
14734;SDS011;7458;49.002;8.472;2023-10-19T00:25:57;39.63;;;25.05;;
14734;SDS011;7458;49.002;8.472;2023-10-19T00:28:26;28.48;;;24.23;;
14734;SDS011;7458;49.002;8.472;2023-10-19T00:30:53;27.80;;;22.85;;
14734;SDS011;7458;49.002;8.472;2023-10-19T00:33:25;31.10;;;24.52;;
14734;SDS011;7458;49.002;8.472;2023-10-19T00:35:53;28.55;;;23.55;;
14734;SDS011;7458;49.002;8.472;2023-10-19T00:38:32;26.55;;;20.50;;
14734;SDS011;7458;49.002;8.472;2023-10-19T00:41:14;26.83;;;22.08;;
14734;SDS011;7458;49.002;8.472;2023-10-19T00:44:02;29.33;;;21.73;;
14734;SDS011;7458;49.002;8.472;2023-10-19T00:46:32;25.05;;;20.92;;
14734;SDS011;7458;49.002;8.472;2023-10-19T00:49:02;25.20;;;21.85;;
14734;SDS011;7458;49.002;8.472;2023-10-19T00:51:35;36.08;;;20.98;;
14734;SDS011;7458;49.002;8.472;2023-10-19T00:57:05;30.15;;;24.33;;
14734;SDS011;7458;49.002;8.472;2023-10-19T00:59:38;24.02;;;21.20;;
14734;SDS011;7458;49.002;8.472;2023-10-19T01:02:12;33.75;;;21.00;;
14734;SDS011;7458;49.002;8.472;2023-10-19T01:04:43;25.75;;;20.67;;
14734;SDS011;7458;49.002;8.472;2023-10-19T01:07:16;33.10;;;20.60;;
14734;SDS011;7458;49.002;8.472;2023-10-19T01:09:55;24.23;;;20.17;;
14734;SDS011;7458;49.002;8.472;2023-10-19T01:12:24;22.25;;;18.25;;
14734;SDS011;7458;49.002;8.472;2023-10-19T01:17:53;22.90;;;19.08;;
14734;SDS011;7458;49.002;8.472;2023-10-19T01:20:25;21.40;;;17.75;;
14734;SDS011;7458;49.002;8.472;2023-10-19T01:22:57;21.75;;;17.75;;
14734;SDS011;7458;49.002;8.472;2023-10-19T01:25:32;20.52;;;18.42;;
14734;SDS011;7458;49.002;8.472;2023-10-19T01:33:53;18.88;;;15.55;;
14734;SDS011;7458;49.002;8.472;2023-10-19T01:36:21;26.08;;;19.13;;
14734;SDS011;7458;49.002;8.472;2023-10-19T01:38:48;22.63;;;18.35;;
14734;SDS011;7458;49.002;8.472;2023-10-19T01:41:18;20.00;;;17.75;;
14734;SDS011;7458;49.002;8.472;2023-10-19T01:43:48;20.88;;;17.63;;
14734;SDS011;7458;49.002;8.472;2023-10-19T01:46:18;18.63;;;16.63;;
14734;SDS011;7458;49.002;8.472;2023-10-19T01:48:47;19.73;;;17.45;;
14734;SDS011;7458;49.002;8.472;2023-10-19T01:51:19;19.92;;;17.35;;
14734;SDS011;7458;49.002;8.472;2023-10-19T01:53:48;22.77;;;17.42;;
14734;SDS011;7458;49.002;8.472;2023-10-19T01:56:15;20.42;;;16.17;;
14734;SDS011;7458;49.002;8.472;2023-10-19T01:58:43;16.67;;;14.50;;
14734;SDS011;7458;49.002;8.472;2023-10-19T02:01:12;17.33;;;14.38;;
14734;SDS011;7458;49.002;8.472;2023-10-19T02:03:39;18.55;;;15.25;;
14734;SDS011;7458;49.002;8.472;2023-10-19T02:06:09;20.70;;;16.08;;
14734;SDS011;7458;49.002;8.472;2023-10-19T02:08:40;15.73;;;13.93;;
14734;SDS011;7458;49.002;8.472;2023-10-19T02:11:06;19.13;;;14.93;;
14734;SDS011;7458;49.002;8.472;2023-10-19T02:13:43;20.02;;;16.02;;
14734;SDS011;7458;49.002;8.472;2023-10-19T02:16:14;17.17;;;15.48;;
14734;SDS011;7458;49.002;8.472;2023-10-19T02:18:57;21.08;;;16.08;;
14734;SDS011;7458;49.002;8.472;2023-10-19T02:21:23;22.80;;;19.20;;
14734;SDS011;7458;49.002;8.472;2023-10-19T02:23:55;23.08;;;17.52;;
14734;SDS011;7458;49.002;8.472;2023-10-19T02:26:22;26.40;;;21.08;;
14734;SDS011;7458;49.002;8.472;2023-10-19T02:28:51;23.02;;;18.95;;
14734;SDS011;7458;49.002;8.472;2023-10-19T02:31:18;23.73;;;20.45;;
14734;SDS011;7458;49.002;8.472;2023-10-19T02:33:52;22.65;;;18.58;;
14734;SDS011;7458;49.002;8.472;2023-10-19T02:36:28;24.63;;;20.48;;
14734;SDS011;7458;49.002;8.472;2023-10-19T02:38:58;21.80;;;19.42;;
14734;SDS011;7458;49.002;8.472;2023-10-19T02:41:33;32.22;;;21.30;;
14734;SDS011;7458;49.002;8.472;2023-10-19T02:44:04;25.55;;;19.15;;
14734;SDS011;7458;49.002;8.472;2023-10-19T02:46:51;22.60;;;19.65;;
14734;SDS011;7458;49.002;8.472;2023-10-19T02:49:23;17.13;;;14.73;;
14734;SDS011;7458;49.002;8.472;2023-10-19T02:51:54;24.95;;;19.98;;
14734;SDS011;7458;49.002;8.472;2023-10-19T02:54:27;19.80;;;17.75;;
14734;SDS011;7458;49.002;8.472;2023-10-19T02:56:57;20.13;;;17.70;;
14734;SDS011;7458;49.002;8.472;2023-10-19T02:59:24;20.35;;;16.92;;
14734;SDS011;7458;49.002;8.472;2023-10-19T03:01:57;20.60;;;16.63;;
14734;SDS011;7458;49.002;8.472;2023-10-19T03:04:33;18.85;;;16.45;;
14734;SDS011;7458;49.002;8.472;2023-10-19T03:07:05;19.25;;;16.92;;
14734;SDS011;7458;49.002;8.472;2023-10-19T03:09:32;18.83;;;16.35;;
14734;SDS011;7458;49.002;8.472;2023-10-19T03:12:02;19.38;;;16.65;;
14734;SDS011;7458;49.002;8.472;2023-10-19T03:14:29;20.30;;;18.15;;
14734;SDS011;7458;49.002;8.472;2023-10-19T03:16:57;22.33;;;18.55;;
14734;SDS011;7458;49.002;8.472;2023-10-19T03:19:24;19.40;;;17.27;;
14734;SDS011;7458;49.002;8.472;2023-10-19T03:21:51;21.65;;;18.10;;
14734;SDS011;7458;49.002;8.472;2023-10-19T03:24:18;22.77;;;16.83;;
14734;SDS011;7458;49.002;8.472;2023-10-19T03:27:06;23.67;;;17.92;;
14734;SDS011;7458;49.002;8.472;2023-10-19T03:29:46;21.83;;;19.58;;
14734;SDS011;7458;49.002;8.472;2023-10-19T03:32:18;22.60;;;20.27;;
14734;SDS011;7458;49.002;8.472;2023-10-19T03:34:47;20.90;;;18.67;;
14734;SDS011;7458;49.002;8.472;2023-10-19T03:37:21;21.88;;;17.45;;
14734;SDS011;7458;49.002;8.472;2023-10-19T03:39:49;24.95;;;20.15;;
14734;SDS011;7458;49.002;8.472;2023-10-19T03:42:16;22.58;;;18.55;;
14734;SDS011;7458;49.002;8.472;2023-10-19T03:44:43;23.45;;;19.42;;
14734;SDS011;7458;49.002;8.472;2023-10-19T03:47:18;24.73;;;18.33;;
14734;SDS011;7458;49.002;8.472;2023-10-19T03:49:45;21.27;;;17.70;;
14734;SDS011;7458;49.002;8.472;2023-10-19T03:52:12;22.23;;;17.83;;
14734;SDS011;7458;49.002;8.472;2023-10-19T03:54:39;24.13;;;20.50;;
14734;SDS011;7458;49.002;8.472;2023-10-19T03:57:06;21.27;;;19.08;;
14734;SDS011;7458;49.002;8.472;2023-10-19T03:59:40;26.48;;;19.23;;
14734;SDS011;7458;49.002;8.472;2023-10-19T04:02:07;20.05;;;17.52;;
14734;SDS011;7458;49.002;8.472;2023-10-19T04:04:41;22.90;;;17.77;;
14734;SDS011;7458;49.002;8.472;2023-10-19T04:07:13;24.70;;;18.80;;
14734;SDS011;7458;49.002;8.472;2023-10-19T04:09:43;18.65;;;16.67;;
14734;SDS011;7458;49.002;8.472;2023-10-19T04:12:30;21.38;;;18.08;;
14734;SDS011;7458;49.002;8.472;2023-10-19T04:14:56;18.95;;;16.98;;
14734;SDS011;7458;49.002;8.472;2023-10-19T04:17:34;21.35;;;18.30;;
14734;SDS011;7458;49.002;8.472;2023-10-19T04:20:01;18.88;;;16.98;;
14734;SDS011;7458;49.002;8.472;2023-10-19T04:22:40;18.83;;;16.15;;
14734;SDS011;7458;49.002;8.472;2023-10-19T04:25:06;17.95;;;15.90;;
14734;SDS011;7458;49.002;8.472;2023-10-19T04:27:33;21.85;;;16.73;;
14734;SDS011;7458;49.002;8.472;2023-10-19T04:30:02;18.92;;;16.52;;
14734;SDS011;7458;49.002;8.472;2023-10-19T04:32:28;20.35;;;16.42;;
14734;SDS011;7458;49.002;8.472;2023-10-19T04:34:56;19.63;;;16.30;;
14734;SDS011;7458;49.002;8.472;2023-10-19T04:37:23;20.42;;;16.25;;
14734;SDS011;7458;49.002;8.472;2023-10-19T04:39:50;25.38;;;17.02;;
14734;SDS011;7458;49.002;8.472;2023-10-19T04:42:16;20.92;;;16.20;;
14734;SDS011;7458;49.002;8.472;2023-10-19T04:44:44;17.55;;;15.63;;
14734;SDS011;7458;49.002;8.472;2023-10-19T04:47:10;18.30;;;16.02;;
14734;SDS011;7458;49.002;8.472;2023-10-19T04:49:37;20.27;;;17.77;;
14734;SDS011;7458;49.002;8.472;2023-10-19T04:52:03;18.95;;;16.67;;
14734;SDS011;7458;49.002;8.472;2023-10-19T04:54:29;20.80;;;17.55;;
14734;SDS011;7458;49.002;8.472;2023-10-19T04:56:55;22.77;;;17.88;;
14734;SDS011;7458;49.002;8.472;2023-10-19T04:59:21;21.95;;;15.43;;
14734;SDS011;7458;49.002;8.472;2023-10-19T05:01:47;20.85;;;18.10;;
14734;SDS011;7458;49.002;8.472;2023-10-19T05:04:15;22.08;;;17.92;;
14734;SDS011;7458;49.002;8.472;2023-10-19T05:06:42;20.17;;;16.85;;
14734;SDS011;7458;49.002;8.472;2023-10-19T05:09:09;23.55;;;19.35;;
14734;SDS011;7458;49.002;8.472;2023-10-19T05:11:34;22.63;;;16.27;;
14734;SDS011;7458;49.002;8.472;2023-10-19T05:14:01;20.98;;;17.50;;
14734;SDS011;7458;49.002;8.472;2023-10-19T05:16:29;20.77;;;16.63;;
14734;SDS011;7458;49.002;8.472;2023-10-19T05:18:56;20.13;;;16.98;;
14734;SDS011;7458;49.002;8.472;2023-10-19T05:21:22;21.02;;;16.85;;
14734;SDS011;7458;49.002;8.472;2023-10-19T05:23:48;16.75;;;14.98;;
14734;SDS011;7458;49.002;8.472;2023-10-19T05:26:14;20.42;;;17.08;;
14734;SDS011;7458;49.002;8.472;2023-10-19T05:28:40;18.67;;;15.18;;
14734;SDS011;7458;49.002;8.472;2023-10-19T05:31:07;19.75;;;14.82;;
14734;SDS011;7458;49.002;8.472;2023-10-19T05:33:34;18.90;;;15.82;;
14734;SDS011;7458;49.002;8.472;2023-10-19T05:36:00;16.23;;;14.52;;
14734;SDS011;7458;49.002;8.472;2023-10-19T05:38:26;20.25;;;15.48;;
14734;SDS011;7458;49.002;8.472;2023-10-19T05:40:52;18.55;;;16.33;;
14734;SDS011;7458;49.002;8.472;2023-10-19T05:43:20;18.65;;;16.80;;
14734;SDS011;7458;49.002;8.472;2023-10-19T05:45:46;20.70;;;17.02;;
14734;SDS011;7458;49.002;8.472;2023-10-19T05:48:15;20.67;;;17.02;;
14734;SDS011;7458;49.002;8.472;2023-10-19T05:50:41;19.27;;;15.85;;
14734;SDS011;7458;49.002;8.472;2023-10-19T05:53:08;20.55;;;15.63;;
14734;SDS011;7458;49.002;8.472;2023-10-19T05:55:34;18.67;;;15.38;;
14734;SDS011;7458;49.002;8.472;2023-10-19T05:58:01;20.05;;;17.92;;
14734;SDS011;7458;49.002;8.472;2023-10-19T06:00:29;22.55;;;16.88;;
14734;SDS011;7458;49.002;8.472;2023-10-19T06:02:56;22.20;;;17.60;;
14734;SDS011;7458;49.002;8.472;2023-10-19T06:05:25;18.05;;;15.75;;
14734;SDS011;7458;49.002;8.472;2023-10-19T06:07:51;20.25;;;14.93;;
14734;SDS011;7458;49.002;8.472;2023-10-19T06:10:18;17.50;;;15.30;;
14734;SDS011;7458;49.002;8.472;2023-10-19T06:12:47;18.77;;;15.40;;
14734;SDS011;7458;49.002;8.472;2023-10-19T06:15:18;16.42;;;14.15;;
14734;SDS011;7458;49.002;8.472;2023-10-19T06:17:49;22.33;;;15.68;;
14734;SDS011;7458;49.002;8.472;2023-10-19T06:20:16;20.02;;;15.68;;
14734;SDS011;7458;49.002;8.472;2023-10-19T06:22:47;19.63;;;15.75;;
14734;SDS011;7458;49.002;8.472;2023-10-19T06:25:19;28.08;;;15.93;;
14734;SDS011;7458;49.002;8.472;2023-10-19T06:27:47;16.48;;;14.65;;
14734;SDS011;7458;49.002;8.472;2023-10-19T06:30:15;22.55;;;16.58;;
14734;SDS011;7458;49.002;8.472;2023-10-19T06:32:47;20.38;;;16.77;;
14734;SDS011;7458;49.002;8.472;2023-10-19T06:35:27;20.23;;;16.65;;
14734;SDS011;7458;49.002;8.472;2023-10-19T06:37:56;19.23;;;17.20;;
14734;SDS011;7458;49.002;8.472;2023-10-19T06:40:28;18.70;;;16.65;;
14734;SDS011;7458;49.002;8.472;2023-10-19T06:42:56;18.95;;;14.98;;
14734;SDS011;7458;49.002;8.472;2023-10-19T06:45:23;19.10;;;17.05;;
14734;SDS011;7458;49.002;8.472;2023-10-19T06:47:54;23.73;;;19.38;;
14734;SDS011;7458;49.002;8.472;2023-10-19T06:50:21;19.98;;;17.98;;
14734;SDS011;7458;49.002;8.472;2023-10-19T06:52:48;23.50;;;18.20;;
14734;SDS011;7458;49.002;8.472;2023-10-19T06:55:15;19.83;;;17.73;;
14734;SDS011;7458;49.002;8.472;2023-10-19T06:57:53;24.15;;;15.43;;
14734;SDS011;7458;49.002;8.472;2023-10-19T07:00:21;17.88;;;15.98;;
14734;SDS011;7458;49.002;8.472;2023-10-19T07:02:52;21.45;;;16.90;;
14734;SDS011;7458;49.002;8.472;2023-10-19T07:05:21;19.52;;;16.15;;
14734;SDS011;7458;49.002;8.472;2023-10-19T07:07:49;19.23;;;16.50;;
14734;SDS011;7458;49.002;8.472;2023-10-19T07:10:19;20.60;;;16.67;;
14734;SDS011;7458;49.002;8.472;2023-10-19T07:12:47;22.00;;;16.15;;
14734;SDS011;7458;49.002;8.472;2023-10-19T07:15:16;19.70;;;16.65;;
14734;SDS011;7458;49.002;8.472;2023-10-19T07:17:47;19.35;;;17.30;;
14734;SDS011;7458;49.002;8.472;2023-10-19T07:20:17;17.30;;;15.40;;
14734;SDS011;7458;49.002;8.472;2023-10-19T07:23:02;23.65;;;15.73;;
14734;SDS011;7458;49.002;8.472;2023-10-19T07:25:49;17.95;;;16.10;;
14734;SDS011;7458;49.002;8.472;2023-10-19T07:28:24;17.13;;;15.25;;
14734;SDS011;7458;49.002;8.472;2023-10-19T07:30:52;17.27;;;15.15;;
14734;SDS011;7458;49.002;8.472;2023-10-19T07:33:18;38.80;;;21.35;;
14734;SDS011;7458;49.002;8.472;2023-10-19T07:35:46;26.23;;;17.55;;
14734;SDS011;7458;49.002;8.472;2023-10-19T07:38:16;23.55;;;17.95;;
14734;SDS011;7458;49.002;8.472;2023-10-19T07:40:42;21.42;;;17.10;;
14734;SDS011;7458;49.002;8.472;2023-10-19T07:43:11;19.73;;;17.73;;
14734;SDS011;7458;49.002;8.472;2023-10-19T07:45:37;18.25;;;16.45;;
14734;SDS011;7458;49.002;8.472;2023-10-19T07:48:04;24.20;;;19.15;;
14734;SDS011;7458;49.002;8.472;2023-10-19T07:50:36;20.05;;;16.75;;
14734;SDS011;7458;49.002;8.472;2023-10-19T07:53:05;30.42;;;18.98;;
14734;SDS011;7458;49.002;8.472;2023-10-19T07:55:32;40.58;;;17.63;;
14734;SDS011;7458;49.002;8.472;2023-10-19T07:58:01;44.85;;;21.60;;
14734;SDS011;7458;49.002;8.472;2023-10-19T08:00:31;39.17;;;21.30;;
14734;SDS011;7458;49.002;8.472;2023-10-19T08:03:00;18.95;;;14.50;;
14734;SDS011;7458;49.002;8.472;2023-10-19T08:05:31;17.73;;;15.95;;
14734;SDS011;7458;49.002;8.472;2023-10-19T08:07:58;20.25;;;17.38;;
14734;SDS011;7458;49.002;8.472;2023-10-19T08:10:25;12.10;;;8.40;;
14734;SDS011;7458;49.002;8.472;2023-10-19T08:12:52;28.70;;;13.93;;
14734;SDS011;7458;49.002;8.472;2023-10-19T08:15:18;30.27;;;19.17;;
14734;SDS011;7458;49.002;8.472;2023-10-19T08:17:46;48.50;;;22.90;;
14734;SDS011;7458;49.002;8.472;2023-10-19T08:20:15;27.63;;;19.70;;
14734;SDS011;7458;49.002;8.472;2023-10-19T08:22:44;14.85;;;13.48;;
14734;SDS011;7458;49.002;8.472;2023-10-19T08:25:13;17.90;;;13.40;;
14734;SDS011;7458;49.002;8.472;2023-10-19T08:27:40;22.25;;;14.13;;
14734;SDS011;7458;49.002;8.472;2023-10-19T08:30:10;29.83;;;16.95;;
14734;SDS011;7458;49.002;8.472;2023-10-19T08:32:38;13.73;;;12.25;;
14734;SDS011;7458;49.002;8.472;2023-10-19T08:35:06;15.40;;;11.90;;
14734;SDS011;7458;49.002;8.472;2023-10-19T08:37:36;19.63;;;13.32;;
14734;SDS011;7458;49.002;8.472;2023-10-19T08:40:06;14.27;;;12.85;;
14734;SDS011;7458;49.002;8.472;2023-10-19T08:42:43;17.95;;;14.45;;
14734;SDS011;7458;49.002;8.472;2023-10-19T08:45:11;15.55;;;13.98;;
14734;SDS011;7458;49.002;8.472;2023-10-19T08:47:54;20.00;;;14.98;;
14734;SDS011;7458;49.002;8.472;2023-10-19T08:50:28;14.25;;;12.75;;
14734;SDS011;7458;49.002;8.472;2023-10-19T08:52:57;16.40;;;14.70;;
14734;SDS011;7458;49.002;8.472;2023-10-19T08:55:25;14.48;;;12.85;;
14734;SDS011;7458;49.002;8.472;2023-10-19T08:57:52;14.68;;;13.30;;
14734;SDS011;7458;49.002;8.472;2023-10-19T09:00:18;17.88;;;14.63;;
14734;SDS011;7458;49.002;8.472;2023-10-19T09:02:50;16.58;;;14.52;;
14734;SDS011;7458;49.002;8.472;2023-10-19T09:05:17;16.50;;;14.25;;
14734;SDS011;7458;49.002;8.472;2023-10-19T09:07:48;14.80;;;13.35;;
14734;SDS011;7458;49.002;8.472;2023-10-19T09:10:21;16.92;;;15.00;;
14734;SDS011;7458;49.002;8.472;2023-10-19T09:13:01;12.77;;;11.52;;
14734;SDS011;7458;49.002;8.472;2023-10-19T09:15:33;14.18;;;11.82;;
14734;SDS011;7458;49.002;8.472;2023-10-19T09:18:16;16.00;;;13.32;;
14734;SDS011;7458;49.002;8.472;2023-10-19T09:20:51;14.25;;;12.75;;
14734;SDS011;7458;49.002;8.472;2023-10-19T09:23:19;14.15;;;12.65;;
14734;SDS011;7458;49.002;8.472;2023-10-19T09:25:55;12.80;;;10.27;;
14734;SDS011;7458;49.002;8.472;2023-10-19T09:28:23;12.93;;;11.75;;
14734;SDS011;7458;49.002;8.472;2023-10-19T09:30:50;13.60;;;11.48;;
14734;SDS011;7458;49.002;8.472;2023-10-19T09:33:17;11.48;;;10.30;;
14734;SDS011;7458;49.002;8.472;2023-10-19T09:35:46;13.60;;;10.65;;
14734;SDS011;7458;49.002;8.472;2023-10-19T09:38:15;10.68;;;9.60;;
14734;SDS011;7458;49.002;8.472;2023-10-19T09:40:47;11.63;;;8.73;;
14734;SDS011;7458;49.002;8.472;2023-10-19T09:43:35;11.68;;;10.55;;
14734;SDS011;7458;49.002;8.472;2023-10-19T09:46:10;11.63;;;10.45;;
14734;SDS011;7458;49.002;8.472;2023-10-19T09:48:55;12.15;;;9.60;;
14734;SDS011;7458;49.002;8.472;2023-10-19T09:51:21;11.98;;;9.82;;
14734;SDS011;7458;49.002;8.472;2023-10-19T09:53:52;10.60;;;9.18;;
14734;SDS011;7458;49.002;8.472;2023-10-19T09:57:02;11.43;;;9.32;;
14734;SDS011;7458;49.002;8.472;2023-10-19T09:59:41;11.00;;;10.00;;
14734;SDS011;7458;49.002;8.472;2023-10-19T10:02:13;10.70;;;9.10;;
14734;SDS011;7458;49.002;8.472;2023-10-19T10:04:43;10.50;;;9.50;;
14734;SDS011;7458;49.002;8.472;2023-10-19T10:07:13;11.20;;;9.38;;
14734;SDS011;7458;49.002;8.472;2023-10-19T10:09:41;11.10;;;10.00;;
14734;SDS011;7458;49.002;8.472;2023-10-19T10:12:15;13.48;;;9.43;;
14734;SDS011;7458;49.002;8.472;2023-10-19T10:14:55;10.23;;;9.02;;
14734;SDS011;7458;49.002;8.472;2023-10-19T10:17:34;11.68;;;10.40;;
14734;SDS011;7458;49.002;8.472;2023-10-19T10:22:38;12.73;;;10.70;;
14734;SDS011;7458;49.002;8.472;2023-10-19T10:25:06;11.63;;;10.43;;
14734;SDS011;7458;49.002;8.472;2023-10-19T10:27:50;11.55;;;10.35;;
14734;SDS011;7458;49.002;8.472;2023-10-19T10:30:17;10.73;;;9.65;;
14734;SDS011;7458;49.002;8.472;2023-10-19T10:35:09;11.68;;;10.45;;
14734;SDS011;7458;49.002;8.472;2023-10-19T10:37:55;10.98;;;9.75;;
14734;SDS011;7458;49.002;8.472;2023-10-19T10:40:23;12.05;;;10.75;;
14734;SDS011;7458;49.002;8.472;2023-10-19T10:43:03;12.30;;;10.30;;
14734;SDS011;7458;49.002;8.472;2023-10-19T10:45:31;11.50;;;9.38;;
14734;SDS011;7458;49.002;8.472;2023-10-19T10:47:57;11.45;;;10.15;;
14734;SDS011;7458;49.002;8.472;2023-10-19T10:50:26;14.15;;;10.00;;
14734;SDS011;7458;49.002;8.472;2023-10-19T10:52:55;11.90;;;10.57;;
14734;SDS011;7458;49.002;8.472;2023-10-19T10:55:24;13.63;;;11.15;;
14734;SDS011;7458;49.002;8.472;2023-10-19T10:57:52;11.55;;;10.43;;
14734;SDS011;7458;49.002;8.472;2023-10-19T11:00:19;11.77;;;10.25;;
14734;SDS011;7458;49.002;8.472;2023-10-19T11:02:58;12.35;;;11.30;;
14734;SDS011;7458;49.002;8.472;2023-10-19T11:05:26;15.30;;;13.73;;
14734;SDS011;7458;49.002;8.472;2023-10-19T11:08:02;14.05;;;12.60;;
14734;SDS011;7458;49.002;8.472;2023-10-19T11:10:46;17.65;;;14.02;;
14734;SDS011;7458;49.002;8.472;2023-10-19T11:13:13;14.73;;;12.35;;
14734;SDS011;7458;49.002;8.472;2023-10-19T11:15:48;13.45;;;12.15;;
14734;SDS011;7458;49.002;8.472;2023-10-19T11:18:32;18.27;;;13.38;;
14734;SDS011;7458;49.002;8.472;2023-10-19T11:21:08;14.35;;;12.95;;
14734;SDS011;7458;49.002;8.472;2023-10-19T11:26:08;17.60;;;15.80;;
14734;SDS011;7458;49.002;8.472;2023-10-19T11:28:36;16.85;;;15.25;;
14734;SDS011;7458;49.002;8.472;2023-10-19T11:31:16;17.25;;;15.57;;
14734;SDS011;7458;49.002;8.472;2023-10-19T11:33:47;19.90;;;17.83;;
14734;SDS011;7458;49.002;8.472;2023-10-19T11:36:14;23.27;;;17.70;;
14734;SDS011;7458;49.002;8.472;2023-10-19T11:38:45;19.42;;;17.30;;
14734;SDS011;7458;49.002;8.472;2023-10-19T11:41:13;19.38;;;17.45;;
14734;SDS011;7458;49.002;8.472;2023-10-19T11:43:41;20.83;;;18.75;;
14734;SDS011;7458;49.002;8.472;2023-10-19T11:46:10;19.15;;;15.95;;
14734;SDS011;7458;49.002;8.472;2023-10-19T11:48:37;22.70;;;19.75;;
14734;SDS011;7458;49.002;8.472;2023-10-19T11:51:05;22.90;;;19.27;;
14734;SDS011;7458;49.002;8.472;2023-10-19T11:53:34;18.23;;;16.38;;
14734;SDS011;7458;49.002;8.472;2023-10-19T11:56:02;32.72;;;22.63;;
14734;SDS011;7458;49.002;8.472;2023-10-19T11:58:31;25.08;;;20.10;;
14734;SDS011;7458;49.002;8.472;2023-10-19T12:01:00;18.67;;;16.88;;
14734;SDS011;7458;49.002;8.472;2023-10-19T12:03:33;17.13;;;15.30;;
14734;SDS011;7458;49.002;8.472;2023-10-19T12:06:04;19.10;;;16.90;;
14734;SDS011;7458;49.002;8.472;2023-10-19T12:08:35;18.10;;;16.40;;
14734;SDS011;7458;49.002;8.472;2023-10-19T12:11:02;22.30;;;15.52;;
14734;SDS011;7458;49.002;8.472;2023-10-19T12:13:31;20.95;;;15.52;;
14734;SDS011;7458;49.002;8.472;2023-10-19T12:15:57;19.10;;;17.20;;
14734;SDS011;7458;49.002;8.472;2023-10-19T12:18:24;16.50;;;14.80;;
14734;SDS011;7458;49.002;8.472;2023-10-19T12:20:53;19.27;;;15.50;;
14734;SDS011;7458;49.002;8.472;2023-10-19T12:23:25;17.33;;;15.43;;
14734;SDS011;7458;49.002;8.472;2023-10-19T12:25:51;16.98;;;14.98;;
14734;SDS011;7458;49.002;8.472;2023-10-19T12:28:17;17.10;;;14.07;;
14734;SDS011;7458;49.002;8.472;2023-10-19T12:30:44;19.67;;;16.30;;
14734;SDS011;7458;49.002;8.472;2023-10-19T12:33:10;17.38;;;14.98;;
14734;SDS011;7458;49.002;8.472;2023-10-19T12:35:42;22.45;;;17.50;;
14734;SDS011;7458;49.002;8.472;2023-10-19T12:38:18;16.67;;;14.98;;
14734;SDS011;7458;49.002;8.472;2023-10-19T12:40:45;19.05;;;16.77;;
14734;SDS011;7458;49.002;8.472;2023-10-19T12:43:14;19.40;;;16.67;;
14734;SDS011;7458;49.002;8.472;2023-10-19T12:45:43;19.50;;;16.38;;
14734;SDS011;7458;49.002;8.472;2023-10-19T12:48:13;19.25;;;16.60;;
14734;SDS011;7458;49.002;8.472;2023-10-19T12:50:39;24.42;;;16.88;;
14734;SDS011;7458;49.002;8.472;2023-10-19T12:53:06;17.00;;;15.32;;
14734;SDS011;7458;49.002;8.472;2023-10-19T12:55:32;15.77;;;14.07;;
14734;SDS011;7458;49.002;8.472;2023-10-19T12:57:59;16.45;;;14.82;;
14734;SDS011;7458;49.002;8.472;2023-10-19T13:00:32;17.40;;;15.70;;
14734;SDS011;7458;49.002;8.472;2023-10-19T13:03:06;16.27;;;14.32;;
14734;SDS011;7458;49.002;8.472;2023-10-19T13:07:59;15.63;;;14.15;;
14734;SDS011;7458;49.002;8.472;2023-10-19T13:10:29;20.15;;;16.85;;
14734;SDS011;7458;49.002;8.472;2023-10-19T13:13:04;19.25;;;15.43;;
14734;SDS011;7458;49.002;8.472;2023-10-19T13:15:35;27.85;;;16.13;;
14734;SDS011;7458;49.002;8.472;2023-10-19T13:18:03;15.98;;;14.27;;
14734;SDS011;7458;49.002;8.472;2023-10-19T13:20:31;18.08;;;15.68;;
14734;SDS011;7458;49.002;8.472;2023-10-19T13:23:05;17.80;;;16.15;;
14734;SDS011;7458;49.002;8.472;2023-10-19T13:25:46;20.40;;;15.13;;
14734;SDS011;7458;49.002;8.472;2023-10-19T13:28:16;17.38;;;15.68;;
14734;SDS011;7458;49.002;8.472;2023-10-19T13:30:45;19.30;;;15.15;;
14734;SDS011;7458;49.002;8.472;2023-10-19T13:33:13;18.92;;;15.88;;
14734;SDS011;7458;49.002;8.472;2023-10-19T13:35:40;20.27;;;16.65;;
14734;SDS011;7458;49.002;8.472;2023-10-19T13:38:08;18.98;;;16.83;;
14734;SDS011;7458;49.002;8.472;2023-10-19T13:40:36;18.25;;;16.42;;
14734;SDS011;7458;49.002;8.472;2023-10-19T13:43:06;17.77;;;14.55;;
14734;SDS011;7458;49.002;8.472;2023-10-19T13:45:34;17.92;;;15.85;;
14734;SDS011;7458;49.002;8.472;2023-10-19T13:48:05;20.17;;;18.17;;
14734;SDS011;7458;49.002;8.472;2023-10-19T13:50:33;18.15;;;16.35;;
14734;SDS011;7458;49.002;8.472;2023-10-19T13:53:00;28.80;;;16.10;;
14734;SDS011;7458;49.002;8.472;2023-10-19T13:55:29;28.85;;;16.00;;
14734;SDS011;7458;49.002;8.472;2023-10-19T13:57:56;17.45;;;15.65;;
14734;SDS011;7458;49.002;8.472;2023-10-19T14:00:23;20.20;;;17.92;;
14734;SDS011;7458;49.002;8.472;2023-10-19T14:02:53;21.25;;;19.05;;
14734;SDS011;7458;49.002;8.472;2023-10-19T14:05:19;24.75;;;16.08;;
14734;SDS011;7458;49.002;8.472;2023-10-19T14:07:48;18.05;;;15.85;;
14734;SDS011;7458;49.002;8.472;2023-10-19T14:10:14;20.88;;;18.63;;
14734;SDS011;7458;49.002;8.472;2023-10-19T14:12:40;20.77;;;18.63;;
14734;SDS011;7458;49.002;8.472;2023-10-19T14:15:14;21.48;;;19.30;;
14734;SDS011;7458;49.002;8.472;2023-10-19T14:17:45;23.23;;;19.35;;
14734;SDS011;7458;49.002;8.472;2023-10-19T14:20:13;28.67;;;18.35;;
14734;SDS011;7458;49.002;8.472;2023-10-19T14:22:44;30.75;;;18.67;;
14734;SDS011;7458;49.002;8.472;2023-10-19T14:25:13;22.83;;;18.35;;
14734;SDS011;7458;49.002;8.472;2023-10-19T14:27:40;21.85;;;18.35;;
14734;SDS011;7458;49.002;8.472;2023-10-19T14:30:13;21.02;;;17.73;;
14734;SDS011;7458;49.002;8.472;2023-10-19T14:32:44;23.98;;;20.35;;
14734;SDS011;7458;49.002;8.472;2023-10-19T14:35:14;19.98;;;17.95;;
14734;SDS011;7458;49.002;8.472;2023-10-19T14:37:43;21.75;;;19.27;;
14734;SDS011;7458;49.002;8.472;2023-10-19T14:40:12;18.67;;;16.60;;
14734;SDS011;7458;49.002;8.472;2023-10-19T14:42:41;20.80;;;17.48;;
14734;SDS011;7458;49.002;8.472;2023-10-19T14:47:45;24.92;;;19.50;;
14734;SDS011;7458;49.002;8.472;2023-10-19T14:50:19;20.33;;;18.60;;
14734;SDS011;7458;49.002;8.472;2023-10-19T14:52:46;21.05;;;18.77;;
14734;SDS011;7458;49.002;8.472;2023-10-19T14:55:15;21.92;;;19.63;;
14734;SDS011;7458;49.002;8.472;2023-10-19T14:57:42;21.75;;;19.42;;
14734;SDS011;7458;49.002;8.472;2023-10-19T15:00:18;22.00;;;19.65;;
14734;SDS011;7458;49.002;8.472;2023-10-19T15:02:55;27.00;;;21.38;;
14734;SDS011;7458;49.002;8.472;2023-10-19T15:05:26;22.23;;;20.05;;
14734;SDS011;7458;49.002;8.472;2023-10-19T15:07:53;21.85;;;19.63;;
14734;SDS011;7458;49.002;8.472;2023-10-19T15:10:22;18.92;;;17.02;;
14734;SDS011;7458;49.002;8.472;2023-10-19T15:12:52;21.60;;;19.55;;
14734;SDS011;7458;49.002;8.472;2023-10-19T15:15:23;18.95;;;16.55;;
14734;SDS011;7458;49.002;8.472;2023-10-19T15:17:51;21.15;;;16.85;;